createdAt,value
2018-04-24T00:00:58.136Z,6.60
2018-04-24T00:03:27.211Z,5.30
2018-04-24T00:05:56.571Z,5.20
2018-04-24T00:08:25.669Z,6.60
2018-04-24T00:10:54.772Z,7.13
2018-04-24T00:13:23.977Z,4.40
2018-04-24T00:15:53.085Z,5.40
2018-04-24T00:18:22.262Z,5.90
2018-04-24T00:20:51.332Z,5.03
2018-04-24T00:23:20.437Z,5.20
2018-04-24T00:25:49.540Z,4.80
2018-04-24T00:28:18.659Z,4.90
2018-04-24T00:30:47.759Z,4.73
2018-04-24T00:33:16.859Z,5.60
2018-04-24T00:35:45.931Z,4.87
2018-04-24T00:38:15.792Z,6.80
2018-04-24T00:40:44.894Z,5.43
2018-04-24T00:43:13.982Z,6.57
2018-04-24T00:45:43.888Z,6.57
2018-04-24T00:48:12.940Z,10.00
2018-04-24T00:50:42.072Z,5.03
2018-04-24T00:53:28.940Z,4.90
2018-04-24T00:55:58.039Z,5.50
2018-04-24T00:58:27.140Z,8.70
2018-04-24T01:00:56.248Z,8.43
2018-04-24T01:03:25.497Z,5.10
2018-04-24T01:05:54.593Z,5.27
2018-04-24T01:08:23.675Z,5.03
2018-04-24T01:10:52.752Z,5.50
2018-04-24T01:13:22.579Z,7.67
2018-04-24T01:15:52.412Z,5.33
2018-04-24T01:18:21.563Z,8.90
2018-04-24T01:20:50.692Z,4.27
2018-04-24T01:23:19.764Z,5.00
2018-04-24T01:25:48.863Z,4.97
2018-04-24T01:28:17.965Z,6.33
2018-04-24T01:30:47.040Z,4.67
2018-04-24T01:33:16.111Z,5.17
2018-04-24T01:35:45.208Z,5.10
2018-04-24T01:38:14.279Z,4.97
2018-04-24T01:40:43.416Z,6.50
2018-04-24T01:43:12.484Z,5.50
2018-04-24T01:45:41.551Z,10.00
2018-04-24T01:48:10.621Z,6.27
2018-04-24T01:50:40.560Z,6.00
2018-04-24T01:53:10.437Z,3.97
2018-04-24T01:55:39.635Z,6.07
2018-04-24T01:58:08.753Z,5.95
2018-04-24T02:00:37.942Z,7.27
2018-04-24T02:03:07.015Z,7.97
2018-04-24T02:05:36.076Z,4.53
2018-04-24T02:08:05.172Z,6.00
2018-04-24T02:10:34.278Z,6.50
2018-04-24T02:13:03.536Z,5.67
2018-04-24T02:15:32.632Z,7.50
2018-04-24T02:18:01.745Z,6.00
2018-04-24T02:20:30.853Z,6.20
2018-04-24T02:22:59.985Z,4.97
2018-04-24T02:25:29.083Z,8.57
2018-04-24T02:27:58.162Z,6.73
2018-04-24T02:30:27.231Z,7.40
2018-04-24T02:32:56.302Z,6.27
2018-04-24T02:35:25.379Z,4.93
2018-04-24T02:37:55.272Z,5.95
2018-04-24T02:40:24.425Z,7.70
2018-04-24T02:42:53.519Z,10.17
2018-04-24T02:45:23.399Z,4.97
2018-04-24T02:47:52.480Z,6.37
2018-04-24T02:50:21.543Z,5.57
2018-04-24T02:52:50.619Z,7.95
2018-04-24T02:55:19.734Z,6.00
2018-04-24T02:57:48.877Z,8.63
2018-04-24T03:00:17.991Z,5.57
2018-04-24T03:02:47.109Z,5.17
2018-04-24T03:05:16.268Z,5.70
2018-04-24T03:07:45.392Z,4.78
2018-04-24T03:10:14.501Z,5.25
2018-04-24T03:12:43.581Z,5.53
2018-04-24T03:15:12.686Z,6.03
2018-04-24T03:17:41.797Z,6.12
2018-04-24T03:20:10.907Z,5.68
2018-04-24T03:22:39.985Z,7.43
2018-04-24T03:25:09.113Z,5.37
2018-04-24T03:27:39.005Z,8.52
2018-04-24T03:30:08.117Z,10.05
2018-04-24T03:32:37.215Z,5.93
2018-04-24T03:35:06.356Z,5.50
2018-04-24T03:37:35.456Z,5.32
2018-04-24T03:40:05.420Z,6.53
2018-04-24T03:42:35.280Z,5.37
2018-04-24T03:45:04.380Z,8.20
2018-04-24T03:47:33.483Z,5.43
2018-04-24T03:50:02.555Z,8.60
2018-04-24T03:52:31.679Z,5.85
2018-04-24T03:55:00.772Z,9.57
2018-04-24T03:57:29.877Z,5.15
2018-04-24T03:59:58.980Z,8.48
2018-04-24T04:02:28.076Z,6.00
2018-04-24T04:04:57.455Z,6.53
2018-04-24T04:07:27.284Z,5.85
2018-04-24T04:09:57.163Z,5.45
2018-04-24T04:12:26.256Z,5.72
2018-04-24T04:14:55.403Z,12.43
2018-04-24T04:17:42.379Z,5.07
2018-04-24T04:20:29.423Z,5.55
2018-04-24T04:23:16.190Z,6.32
2018-04-24T04:25:45.395Z,7.62
2018-04-24T04:28:14.501Z,9.15
2018-04-24T04:30:44.370Z,6.82
2018-04-24T04:33:14.288Z,11.20
2018-04-24T04:35:44.131Z,10.70
2018-04-24T04:38:13.979Z,6.55
2018-04-24T04:40:43.083Z,5.55
2018-04-24T04:43:12.158Z,6.30
2018-04-24T04:45:41.260Z,8.30
2018-04-24T04:48:10.600Z,6.03
2018-04-24T04:50:40.443Z,4.72
2018-04-24T04:53:10.364Z,5.80
2018-04-24T04:55:40.246Z,5.93
2018-04-24T04:58:09.399Z,6.00
2018-04-24T05:00:39.239Z,10.50
2018-04-24T05:03:09.112Z,7.95
2018-04-24T05:05:38.212Z,6.50
2018-04-24T05:08:07.400Z,5.83
2018-04-24T05:10:36.475Z,6.77
2018-04-24T05:13:05.576Z,5.50
2018-04-24T05:15:34.731Z,6.20
2018-04-24T05:18:03.974Z,6.97
2018-04-24T05:20:33.052Z,8.10
2018-04-24T05:23:02.182Z,6.70
2018-04-24T05:25:32.127Z,5.90
2018-04-24T05:28:01.259Z,6.53
2018-04-24T05:30:30.353Z,7.53
2018-04-24T05:32:59.422Z,5.83
2018-04-24T05:35:29.283Z,7.57
2018-04-24T05:37:58.393Z,10.27
2018-04-24T05:40:28.236Z,6.70
2018-04-24T05:42:57.290Z,7.93
2018-04-24T05:45:27.165Z,6.27
2018-04-24T05:47:56.255Z,6.07
2018-04-24T05:50:25.320Z,6.10
2018-04-24T05:52:54.464Z,6.80
2018-04-24T05:55:23.593Z,6.50
2018-04-24T05:57:52.744Z,6.43
2018-04-24T06:00:21.822Z,6.70
2018-04-24T06:02:50.964Z,7.10
2018-04-24T06:05:20.073Z,6.63
2018-04-24T06:07:49.174Z,6.90
2018-04-24T06:10:18.243Z,7.00
2018-04-24T06:12:47.345Z,6.23
2018-04-24T06:15:16.452Z,8.07
2018-04-24T06:17:45.584Z,8.00
2018-04-24T06:20:14.660Z,6.33
2018-04-24T06:22:43.767Z,7.50
2018-04-24T06:25:12.862Z,7.63
2018-04-24T06:27:41.969Z,7.27
2018-04-24T06:30:11.076Z,8.87
2018-04-24T06:32:40.187Z,6.83
2018-04-24T06:35:09.254Z,5.53
2018-04-24T06:37:38.319Z,5.53
2018-04-24T06:40:07.499Z,6.13
2018-04-24T06:42:36.583Z,5.33
2018-04-24T06:45:05.653Z,6.17
2018-04-24T06:47:34.720Z,6.07
2018-04-24T06:50:03.891Z,6.80
2018-04-24T06:52:33.731Z,6.60
2018-04-24T06:55:03.648Z,6.73
2018-04-24T06:57:32.691Z,6.30
2018-04-24T07:00:01.755Z,9.23
2018-04-24T07:02:30.888Z,6.53
2018-04-24T07:05:00.723Z,5.50
2018-04-24T07:07:29.821Z,6.07
2018-04-24T07:09:59.693Z,8.57
2018-04-24T07:12:28.868Z,7.97
2018-04-24T07:14:58.041Z,6.80
2018-04-24T07:17:27.107Z,6.50
2018-04-24T07:19:56.171Z,7.27
2018-04-24T07:22:25.242Z,9.13
2018-04-24T07:24:54.336Z,6.10
2018-04-24T07:27:23.435Z,7.60
2018-04-24T07:29:52.637Z,8.53
2018-04-24T07:32:22.475Z,7.70
2018-04-24T07:34:52.565Z,10.63
2018-04-24T07:37:21.681Z,11.13
2018-04-24T07:39:50.755Z,9.10
2018-04-24T07:42:19.856Z,10.77
2018-04-24T07:44:48.933Z,7.87
2018-04-24T07:47:18.797Z,8.37
2018-04-24T07:49:47.912Z,12.20
2018-04-24T07:52:17.020Z,11.27
2018-04-24T07:54:46.164Z,17.23
2018-04-24T07:57:15.317Z,11.57
2018-04-24T07:59:45.168Z,13.77
2018-04-24T08:02:14.249Z,13.17
2018-04-24T08:04:44.125Z,11.37
2018-04-24T08:07:13.203Z,14.60
2018-04-24T08:09:42.346Z,16.10
2018-04-24T08:12:13.901Z,12.70
2018-04-24T08:14:43.807Z,13.10
2018-04-24T08:17:13.679Z,12.93
2018-04-24T08:19:42.759Z,13.90
2018-04-24T08:22:11.868Z,14.23
2018-04-24T08:24:40.983Z,17.73
2018-04-24T08:27:10.084Z,18.57
2018-04-24T08:29:39.160Z,17.03
2018-04-24T08:32:08.261Z,13.60
2018-04-24T08:34:37.368Z,14.93
2018-04-24T08:37:06.495Z,13.73
2018-04-24T08:39:35.676Z,18.87
2018-04-24T08:42:04.810Z,17.10
2018-04-24T08:44:34.658Z,13.23
2018-04-24T08:47:05.304Z,16.43
2018-04-24T08:49:35.311Z,17.20
2018-04-24T08:52:04.384Z,17.07
2018-04-24T08:54:33.489Z,17.40
2018-04-24T08:57:02.567Z,14.67
2018-04-24T08:59:31.676Z,15.87
2018-04-24T09:02:00.854Z,11.07
2018-04-24T09:04:29.943Z,13.53
2018-04-24T09:06:59.026Z,14.03
2018-04-24T09:09:28.893Z,15.73
2018-04-24T09:11:58.040Z,11.00
2018-04-24T09:14:27.144Z,12.70
2018-04-24T09:16:56.444Z,16.50
2018-04-24T09:19:26.076Z,13.13
2018-04-24T09:21:55.995Z,10.30
2018-04-24T09:24:25.893Z,12.20
2018-04-24T09:26:55.080Z,13.87
2018-04-24T09:29:24.293Z,11.13
2018-04-24T09:31:54.132Z,9.40
2018-04-24T09:34:24.010Z,7.20
2018-04-24T09:36:53.132Z,9.17
2018-04-24T09:39:22.315Z,6.50
2018-04-24T09:41:51.417Z,6.43
2018-04-24T09:44:20.521Z,6.73
2018-04-24T09:46:49.592Z,6.13
2018-04-24T09:49:18.659Z,6.13
2018-04-24T09:51:47.803Z,6.23
2018-04-24T09:54:16.875Z,5.90
2018-04-24T09:56:46.031Z,5.73
2018-04-24T09:59:15.906Z,7.17
2018-04-24T10:01:45.005Z,8.50
2018-04-24T10:04:14.067Z,5.57
2018-04-24T10:06:43.776Z,6.07
2018-04-24T10:09:12.876Z,6.50
2018-04-24T10:11:41.976Z,6.43
2018-04-24T10:14:11.113Z,6.80
2018-04-24T10:16:40.182Z,5.30
2018-04-24T10:19:09.309Z,4.23
2018-04-24T10:21:38.413Z,3.60
2018-04-24T10:24:07.517Z,3.33
2018-04-24T10:26:36.672Z,3.00
2018-04-24T10:29:05.771Z,4.07
2018-04-24T10:31:34.870Z,8.50
2018-04-24T10:34:03.969Z,3.63
2018-04-24T10:36:33.079Z,4.50
2018-04-24T10:39:02.181Z,5.40
2018-04-24T10:41:31.246Z,4.30
2018-04-24T10:44:00.339Z,4.17
2018-04-24T10:46:29.471Z,9.20
2018-04-24T10:48:58.561Z,4.30
2018-04-24T10:51:27.633Z,4.83
2018-04-24T10:53:56.729Z,4.33
2018-04-24T10:56:26.567Z,4.63
2018-04-24T10:58:55.630Z,5.20
2018-04-24T11:01:25.489Z,5.27
2018-04-24T11:03:55.356Z,5.20
2018-04-24T11:06:24.456Z,5.23
2018-04-24T11:08:53.567Z,4.57
2018-04-24T11:11:22.736Z,5.60
2018-04-24T11:13:51.836Z,4.90
2018-04-24T11:16:22.597Z,5.40
2018-04-24T11:18:51.762Z,5.30
2018-04-24T11:21:20.831Z,4.70
2018-04-24T11:23:50.659Z,6.93
2018-04-24T11:26:20.520Z,4.97
2018-04-24T11:28:49.623Z,5.07
2018-04-24T11:31:18.731Z,7.80
2018-04-24T11:33:47.832Z,6.20
2018-04-24T11:36:17.687Z,6.70
2018-04-24T11:38:46.789Z,5.10
2018-04-24T11:41:16.133Z,9.73
2018-04-24T11:43:46.076Z,6.27
2018-04-24T11:46:15.124Z,7.73
2018-04-24T11:48:44.392Z,13.07
2018-04-24T11:51:13.508Z,7.80
2018-04-24T11:53:42.599Z,7.93
2018-04-24T11:56:11.679Z,16.63
2018-04-24T11:58:40.780Z,8.43
2018-04-24T12:01:09.846Z,8.67
2018-04-24T12:03:38.941Z,6.90
2018-04-24T12:06:08.779Z,6.90
2018-04-24T12:08:37.845Z,7.63
2018-04-24T12:11:06.915Z,10.90
2018-04-24T12:13:36.072Z,12.23
2018-04-24T12:16:05.181Z,12.47
2018-04-24T12:18:34.251Z,8.17
2018-04-24T12:21:03.480Z,9.43
2018-04-24T12:23:33.351Z,9.50
2018-04-24T12:26:02.449Z,7.23
2018-04-24T12:28:31.524Z,6.43
2018-04-24T12:31:01.360Z,5.43
2018-04-24T12:33:31.255Z,2.77
2018-04-24T12:36:00.334Z,1.90
2018-04-24T12:38:29.456Z,5.10
2018-04-24T12:40:58.553Z,1.33
2018-04-24T12:43:27.653Z,1.30
2018-04-24T12:45:56.747Z,1.37
2018-04-24T12:48:26.580Z,2.00
2018-04-24T12:50:56.412Z,1.10
2018-04-24T12:53:25.503Z,1.33
2018-04-24T12:55:55.368Z,8.23
2018-04-24T12:58:24.440Z,4.53
2018-04-24T13:00:54.271Z,1.23
2018-04-24T13:03:24.132Z,4.10
2018-04-24T13:05:53.228Z,1.67
2018-04-24T13:08:22.329Z,1.30
2018-04-24T13:10:52.605Z,1.23
2018-04-24T13:13:21.676Z,1.70
2018-04-24T13:15:51.568Z,3.97
2018-04-24T13:18:20.689Z,2.70
2018-04-24T13:20:50.528Z,1.40
2018-04-24T13:23:20.410Z,2.60
2018-04-24T13:25:49.508Z,2.20
2018-04-24T13:28:18.597Z,3.60
2018-04-24T13:30:48.483Z,1.83
2018-04-24T13:33:17.617Z,1.83
2018-04-24T13:35:46.679Z,3.90
2018-04-24T13:38:15.779Z,1.57
2018-04-24T13:40:44.847Z,3.83
2018-04-24T13:43:14.279Z,1.80
2018-04-24T13:45:44.114Z,2.17
2018-04-24T13:48:13.977Z,2.00
2018-04-24T13:50:43.106Z,1.40
2018-04-24T13:53:12.232Z,1.97
2018-04-24T13:55:41.326Z,2.13
2018-04-24T13:58:10.420Z,1.90
2018-04-24T14:00:39.624Z,3.43
2018-04-24T14:03:08.725Z,2.40
2018-04-24T14:05:37.806Z,2.03
2018-04-24T14:08:06.870Z,2.00
2018-04-24T14:10:35.964Z,2.53
2018-04-24T14:13:05.070Z,2.20
2018-04-24T14:15:34.173Z,2.50
2018-04-24T14:18:03.277Z,2.07
2018-04-24T14:20:32.356Z,2.50
2018-04-24T14:23:01.452Z,3.00
2018-04-24T14:25:30.576Z,2.67
2018-04-24T14:27:59.676Z,2.53
2018-04-24T14:30:28.807Z,2.90
2018-04-24T14:32:58.017Z,2.70
2018-04-24T14:35:27.880Z,3.07
2018-04-24T14:37:56.952Z,3.33
2018-04-24T14:40:26.082Z,2.60
2018-04-24T14:42:56.156Z,2.40
2018-04-24T14:45:25.248Z,2.57
2018-04-24T14:47:54.307Z,2.33
2018-04-24T14:50:23.489Z,3.83
2018-04-24T14:52:52.612Z,3.33
2018-04-24T14:55:21.675Z,3.20
2018-04-24T14:57:51.514Z,3.20
2018-04-24T15:00:20.574Z,3.10
2018-04-24T15:02:49.687Z,5.40
2018-04-24T15:05:18.756Z,2.93
2018-04-24T15:07:47.937Z,2.93
2018-04-24T15:10:17.805Z,3.10
2018-04-24T15:12:46.884Z,2.97
2018-04-24T15:15:15.959Z,12.20
2018-04-24T15:17:45.028Z,3.63
2018-04-24T15:20:14.120Z,3.60
2018-04-24T15:22:43.343Z,6.17
2018-04-24T15:25:12.431Z,3.30
2018-04-24T15:27:41.542Z,3.10
2018-04-24T15:30:10.667Z,3.93
2018-04-24T15:32:39.766Z,4.60
2018-04-24T15:35:08.867Z,2.70
2018-04-24T15:37:37.988Z,4.00
2018-04-24T15:40:07.118Z,5.60
2018-04-24T15:42:36.175Z,6.00
2018-04-24T15:45:05.490Z,3.83
2018-04-24T15:47:34.629Z,3.77
2018-04-24T15:50:03.703Z,3.70
2018-04-24T15:52:32.775Z,4.50
2018-04-24T15:55:01.987Z,4.63
2018-04-24T15:57:31.092Z,5.40
2018-04-24T16:00:00.201Z,5.03
2018-04-24T16:02:29.275Z,4.87
2018-04-24T16:04:59.133Z,4.37
2018-04-24T16:07:28.450Z,5.30
2018-04-24T16:09:57.555Z,8.20
2018-04-24T16:12:26.688Z,5.53
2018-04-24T16:14:55.802Z,6.80
2018-04-24T16:17:24.917Z,4.93
2018-04-24T16:19:54.091Z,5.13
2018-04-24T16:22:23.191Z,5.10
2018-04-24T16:24:52.300Z,5.33
2018-04-24T16:27:22.210Z,5.63
2018-04-24T16:29:51.280Z,4.73
2018-04-24T16:32:20.360Z,5.20
2018-04-24T16:34:49.427Z,5.73
2018-04-24T16:37:18.491Z,5.50
2018-04-24T16:39:47.660Z,8.03
2018-04-24T16:42:16.789Z,5.50
2018-04-24T16:44:46.640Z,9.57
2018-04-24T16:47:15.797Z,4.93
2018-04-24T16:49:44.949Z,5.53
2018-04-24T16:52:14.056Z,4.73
2018-04-24T16:54:43.250Z,5.60
2018-04-24T16:57:13.124Z,5.43
2018-04-24T16:59:42.284Z,4.93
2018-04-24T17:02:11.359Z,5.97
2018-04-24T17:04:40.480Z,5.70
2018-04-24T17:07:09.556Z,4.70
2018-04-24T17:09:38.675Z,5.10
2018-04-24T17:12:07.755Z,6.10
2018-04-24T17:14:37.651Z,5.30
2018-04-24T17:17:06.776Z,5.87
2018-04-24T17:19:36.640Z,6.37
2018-04-24T17:22:05.796Z,5.43
2018-04-24T17:24:34.871Z,5.20
2018-04-24T17:27:03.973Z,6.70
2018-04-24T17:29:33.128Z,5.83
2018-04-24T17:32:03.071Z,5.33
2018-04-24T17:34:32.152Z,4.80
2018-04-24T17:37:01.227Z,6.47
2018-04-24T17:39:30.376Z,4.87
2018-04-24T17:41:59.530Z,6.80
2018-04-24T17:44:29.411Z,5.30
2018-04-24T17:46:58.512Z,5.83
2018-04-24T17:49:27.845Z,5.07
2018-04-24T17:51:57.744Z,5.10
2018-04-24T17:54:26.880Z,5.33
2018-04-24T17:56:56.067Z,5.07
2018-04-24T17:59:25.152Z,5.17
2018-04-24T18:01:55.140Z,4.70
2018-04-24T18:04:24.280Z,5.30
2018-04-24T18:06:54.313Z,5.17
2018-04-24T18:09:23.382Z,4.40
2018-04-24T18:11:52.816Z,5.40
2018-04-24T18:14:21.883Z,4.83
2018-04-24T18:16:50.992Z,5.20
2018-04-24T18:19:20.067Z,5.27
2018-04-24T18:21:49.185Z,5.40
2018-04-24T18:24:19.019Z,7.37
2018-04-24T18:26:48.949Z,5.70
2018-04-24T18:29:18.812Z,5.07
2018-04-24T18:31:47.963Z,7.47
2018-04-24T18:34:17.070Z,5.17
2018-04-24T18:36:46.184Z,5.93
2018-04-24T18:39:15.280Z,6.23
2018-04-24T18:41:44.359Z,8.20
2018-04-24T18:44:14.001Z,5.23
2018-04-24T18:46:44.281Z,6.90
2018-04-24T18:49:13.480Z,5.87
2018-04-24T18:51:42.551Z,5.57
2018-04-24T18:54:11.614Z,5.70
2018-04-24T18:56:41.520Z,5.70
2018-04-24T18:59:10.624Z,5.50
2018-04-24T19:01:39.745Z,5.10
2018-04-24T19:04:08.950Z,30.67
2018-04-24T19:06:38.429Z,62.10
2018-04-24T19:09:07.581Z,13.03
2018-04-24T19:11:36.689Z,6.90
2018-04-24T19:14:11.352Z,4.90
2018-04-24T19:16:41.297Z,5.07
2018-04-24T19:19:27.907Z,5.20
2018-04-24T19:21:56.975Z,6.47
2018-04-24T19:24:31.658Z,5.37
2018-04-24T19:27:00.805Z,5.30
2018-04-24T19:29:29.883Z,5.30
2018-04-24T19:32:05.634Z,5.80
2018-04-24T19:34:34.777Z,7.37
2018-04-24T19:37:04.111Z,5.63
2018-04-24T19:39:38.914Z,5.30
2018-04-24T19:42:08.807Z,5.43
2018-04-24T19:44:37.940Z,6.07
2018-04-24T19:47:07.019Z,5.23
2018-04-24T19:49:41.793Z,5.47
2018-04-24T19:52:11.603Z,5.97
2018-04-24T19:54:46.229Z,4.60
2018-04-24T19:57:15.340Z,5.50
2018-04-24T19:59:44.424Z,5.80
2018-04-24T20:02:13.544Z,5.37
2018-04-24T20:04:42.737Z,5.33
2018-04-24T20:07:12.624Z,5.87
2018-04-24T20:09:41.700Z,5.57
2018-04-24T20:12:11.362Z,5.13
2018-04-24T20:14:40.575Z,5.73
2018-04-24T20:17:09.951Z,6.57
2018-04-24T20:19:39.083Z,6.20
2018-04-24T20:22:08.251Z,10.53
2018-04-24T20:24:38.122Z,5.80
2018-04-24T20:27:07.229Z,6.37
2018-04-24T20:29:36.336Z,6.50
2018-04-24T20:32:06.238Z,7.03
2018-04-24T20:34:35.368Z,7.10
2018-04-24T20:37:04.471Z,7.23
2018-04-24T20:39:33.602Z,6.60
2018-04-24T20:42:02.696Z,7.00
2018-04-24T20:44:32.095Z,7.00
2018-04-24T20:47:02.184Z,6.40
2018-04-24T20:49:32.369Z,6.67
2018-04-24T20:52:02.251Z,6.93
2018-04-24T20:54:31.319Z,7.40
2018-04-24T20:57:00.415Z,6.90
2018-04-24T20:59:29.629Z,7.57
2018-04-24T21:01:58.732Z,8.00
2018-04-24T21:04:28.597Z,7.90
2018-04-24T21:06:57.662Z,8.70
2018-04-24T21:09:27.521Z,7.57
2018-04-24T21:11:56.628Z,6.87
2018-04-24T21:14:25.772Z,6.87
2018-04-24T21:16:54.868Z,7.37
2018-04-24T21:19:24.012Z,6.83
2018-04-24T21:21:53.079Z,6.37
2018-04-24T21:24:22.200Z,7.73
2018-04-24T21:26:51.272Z,6.97
2018-04-24T21:29:21.165Z,8.27
2018-04-24T21:31:51.163Z,7.80
2018-04-24T21:34:20.230Z,8.03
2018-04-24T21:36:50.058Z,7.13
2018-04-24T21:39:19.968Z,6.97
2018-04-24T21:41:49.039Z,7.63
2018-04-24T21:44:18.104Z,8.10
2018-04-24T21:46:47.212Z,7.57
2018-04-24T21:49:16.312Z,8.53
2018-04-24T21:51:46.154Z,8.80
2018-04-24T21:54:16.037Z,7.77
2018-04-24T21:56:45.188Z,8.37
2018-04-24T21:59:15.097Z,10.20
2018-04-24T22:01:44.286Z,9.43
2018-04-24T22:04:14.131Z,8.47
2018-04-24T22:06:44.746Z,10.30
2018-04-24T22:09:13.908Z,9.00
2018-04-24T22:11:43.015Z,8.57
2018-04-24T22:14:12.140Z,7.97
2018-04-24T22:16:42.015Z,10.00
2018-04-24T22:19:11.120Z,8.17
2018-04-24T22:21:40.224Z,12.57
2018-04-24T22:24:09.332Z,12.33
2018-04-24T22:26:38.419Z,9.47
2018-04-24T22:29:08.253Z,8.30
2018-04-24T22:31:38.111Z,9.50
2018-04-24T22:34:07.296Z,10.13
2018-04-24T22:36:36.401Z,8.63
2018-04-24T22:39:06.264Z,8.53
2018-04-24T22:41:35.389Z,8.03
2018-04-24T22:44:04.488Z,9.53
2018-04-24T22:46:33.644Z,8.50
2018-04-24T22:49:03.483Z,7.83
2018-04-24T22:51:33.348Z,9.80
2018-04-24T22:54:02.443Z,8.30
2018-04-24T22:56:31.617Z,8.57
2018-04-24T22:59:00.715Z,9.30
2018-04-24T23:01:29.789Z,9.70
2018-04-24T23:03:58.859Z,9.27
2018-04-24T23:06:28.710Z,8.27
2018-04-24T23:08:57.825Z,11.77
2018-04-24T23:11:46.343Z,9.80
2018-04-24T23:14:33.459Z,9.77
2018-04-24T23:17:20.368Z,9.10
2018-04-24T23:20:07.192Z,12.67
2018-04-24T23:22:36.372Z,9.27
2018-04-24T23:25:06.239Z,11.60
2018-04-24T23:27:35.343Z,8.10
2018-04-24T23:30:04.528Z,9.40
2018-04-24T23:32:33.623Z,12.07
2018-04-24T23:35:03.467Z,9.07
2018-04-24T23:37:33.296Z,9.80
2018-04-24T23:40:03.137Z,9.63
2018-04-24T23:42:32.203Z,10.17
2018-04-24T23:45:01.663Z,11.13
2018-04-24T23:47:30.744Z,10.43
2018-04-24T23:49:59.886Z,11.23
2018-04-24T23:52:28.958Z,10.97
2018-04-24T23:54:58.028Z,9.87
2018-04-24T23:57:27.133Z,13.10
2018-04-24T23:59:56.221Z,12.27
